Aviation Digital Data Service (ADDS)

Output produced by METARs form (2129 UTC 24 March 2019)
found at http://www.aviationweather.gov/metar/data/
 
KBAF 241726Z 2418/2518 26010G18KT P6SM FEW150 
     FM242200 26011KT P6SM BKN150 
     FM250800 30004KT P6SM BKN120 
     FM251200 33007KT P6SM SCT025
       
KBAM 241731Z 2418/2518 24012KT P6SM SCT045 SCT250 
     FM250300 VRB06KT P6SM FEW150 BKN200 
     FM251200 09008KT P6SM BKN250
       
KBBD 241720Z 2418/2518 23011KT P6SM BKN025 
     FM242000 21008KT P6SM FEW250 
     FM250900 VRB05KT P6SM OVC020
       
KBBG 241722Z 2418/2518 22009KT P6SM BKN025 
     FM241900 23010KT P6SM BKN035 
     FM242000 23010KT P6SM VCSH BKN035 
     FM242100 22010KT 6SM -SHRA VCTS BKN035CB 
     TEMPO 2421/2424 4SM TSRA OVC025CB 
     FM250000 25008KT P6SM OVC060 
     FM251100 32006KT P6SM BKN015 
     FM251400 33007KT P6SM OVC009
       
KBCB 241730Z 2418/2518 23007KT P6SM SCT180 
     FM241900 23008G16KT P6SM SCT100 
     FM242200 24009KT P6SM BKN100 
     FM251400 VRB03KT P6SM OVC040 
     FM251600 VRB03KT P6SM -RA OVC019
       
KBCE 241738Z 2418/2518 27011KT P6SM SCT040 SCT100 
     FM250400 30007KT P6SM SCT100 
     FM251200 27006KT P6SM SKC
       
KBDL 242018Z 2420/2524 25012KT P6SM SCT150 
     FM242200 24009KT P6SM BKN150 
     FM250000 22005KT P6SM BKN120 
     FM251300 34007KT P6SM SCT200
       
KBDR 241950Z 2420/2518 22014KT P6SM BKN200 
     FM242300 23008KT P6SM BKN120 
     FM250500 VRB04KT P6SM OVC100 
     FM251000 34009KT P6SM FEW035 BKN060
       
KBED 241726Z 2418/2518 26010G19KT P6SM SKC 
     FM242200 25009KT P6SM BKN120 
     FM250900 31004KT P6SM BKN030 
     FM251200 34007KT P6SM SCT030 
     FM251300 34007KT P6SM SCT250
       
KBFD 242116Z 2421/2518 24009G15KT P6SM OVC090 
     FM250200 26007KT P6SM OVC050 
     FM250900 29006KT P6SM VCSH BKN015 OVC030 
     FM251300 02007KT P6SM BKN030
       
KBFF 241733Z 2418/2518 00000KT 6SM -RA BR BKN013 OVC022 
     TEMPO 2418/2421 3SM -RA BR BKN010 OVC015 
     FM242100 10006KT P6SM VCSH BKN035 
     FM250100 10008KT 3SM -RA BR OVC015 
     FM250900 VRB03KT 1/2SM FG SCT010 BKN060 
     FM251500 24006KT P6SM SCT100
       
KBFI 241720Z 2418/2518 24005KT P6SM FEW015 BKN035 BKN070 
     FM242100 29004KT P6SM SCT035 BKN070 
     FM250300 05004KT P6SM SCT250 
     FM251500 03008KT P6SM BKN250
       
KBFL 241733Z 2418/2518 23005KT P6SM SKC 
     FM250100 32007KT P6SM SKC 
     FM250600 11006KT P6SM SKC 
     TEMPO 2513/2516 2SM BR SCT001 
     FM251600 13005KT P6SM SKC
       
KBFM 241743Z 2418/2518 13006G12KT P6SM SCT040 
     FM250600 VRB03KT P6SM FEW040 
     FM251200 00000KT 1/4SM FG BKN250 
     FM251500 30004KT P6SM OVC100
       
KBGM 241720Z 2418/2518 26010KT P6SM BKN120 BKN250 
     FM250500 32007KT P6SM OVC035 
     TEMPO 2508/2511 OVC025 
     FM251200 35010KT P6SM SKC
       
KBGR 241721Z 2417/2518 27011G18KT P6SM SCT250 
     FM242300 26009KT P6SM VCSH BKN250 
     FM250200 29003KT P6SM VCSH BKN090 
     FM250400 31004KT P6SM VCSH BKN045 
     FM251000 33008G18KT P6SM SCT250
       
KBHB 241720Z 2418/2518 28011KT P6SM FEW250 
     FM242300 27007KT P6SM SCT250 
     FM250500 32006KT P6SM VCSH BKN070 
     FM250900 35009KT P6SM BKN060 
     FM251300 33012G20KT P6SM SCT250
       
KBHM 241720Z 2418/2518 19010G18KT P6SM OVC250 
     FM250100 19003KT P6SM SCT130 BKN250 
     FM251300 22006KT P6SM VCSH OVC025
       
TAF KBIF 241400Z 2414/2520 VRB06KT 9999 FEW250 QNH3013INS 
     BECMG 2418/2419 27015G20KT 9999 FEW230 510003 QNH3007INS 
     BECMG 2500/2501 28009KT 9999 SKC QNH3009INS TX24/2420Z TN01/2513Z
       
KBIH 241720Z 2418/2518 34006KT P6SM SKC 
     FM242000 17007KT P6SM SCT200 
     FM250500 34006KT P6SM SCT200
       
KBIL 241740Z 2418/2518 VRB05KT P6SM FEW090 BKN200 
     FM242000 05007KT P6SM BKN040 
     FM250000 02006KT 6SM BR VCSH OVC020 
     FM251100 29005KT 6SM BR BKN035 
     FM251500 23009KT P6SM SCT080
       
KBIS 241905Z 2419/2518 05011KT P6SM OVC012 
     FM250200 06009KT P6SM OVC025 
     FM250800 VRB04KT P6SM OVC015 
     FM251100 VRB03KT P6SM OVC009
       
KBJC 241729Z 2418/2518 06007KT P6SM FEW100 SCT250 
     FM242000 11010KT P6SM VCTS SCT050CB OVC070 
     TEMPO 2421/2501 VRB15G25KT -SHRA BKN040 
     FM250100 15006KT P6SM VCSH SCT050 BKN090 
     FM250300 21006KT P6SM SCT090 SCT140 
     FM250600 28006KT P6SM SCT140 
     FM251600 28008KT P6SM FEW140 SCT200
       
KBJI 242052Z 2421/2518 07008KT P6SM BKN035 
     FM242200 05008KT P6SM SCT029
       
KBKE 241938Z 2420/2518 VRB04KT P6SM VCSH BKN060 
     FM250100 VRB05KT P6SM SKC 
     FM250600 VRB04KT 4SM BR OVC015
       
TAF AMD KBKF 242018Z 2420/2523 23012KT 9999 SCT060 BKN150 QNH3004INS 
     TEMPO 2421/2502 VRB25G35KT 4800 -TSRA BKN050CB 
     BECMG 2501/2502 21009KT 9999 FEW060 SCT090 QNH3011INS 
     BECMG 2503/2504 VRB06KT 6000 BR FEW120 QNH3016INS 
     BECMG 2515/2516 21009KT 9999 NSW SKC QNH3020INS TX15/2423Z TN01/2513Z
       
KBKW 241720Z 2418/2518 23007KT P6SM SCT150 
     FM242200 25007KT P6SM BKN070 
     FM251300 17003KT P6SM -SHRA OVC070 
     FM251500 19004KT 5SM -SHRA OVC015
       
KBLF 241730Z 2418/2518 25009G17KT P6SM BKN150 
     FM250100 VRB04KT P6SM BKN090 
     FM250600 24005KT P6SM SCT050 
     FM250900 22005KT P6SM BKN050 
     FM251500 18007KT P6SM -RA OVC026
       
KBLH 241720Z 2418/2518 35008KT P6SM FEW250 
     FM250400 VRB05KT P6SM FEW250
       
KBLI 241720Z 2418/2518 19004KT P6SM BKN008 BKN030 BKN070 
     FM242000 VRB04KT P6SM SCT040 BKN080 
     FM250800 00000KT P6SM BKN250
       
TAF KBLV 241600Z 2416/2522 14009KT 9999 SCT035 BKN050 QNH3002INS 
     BECMG 2418/2419 VRB06KT 9000 -SHRA BKN025 OVC030 QNH2993INS 
     TEMPO 2422/2503 -TSRA OVC030CB 
     BECMG 2508/2509 03015KT 9999 NSW OVC001 QNH2995INS 
     BECMG 2513/2514 02012G18KT 9999 OVC008 QNH3010INS 
     BECMG 2516/2517 03012G18KT 9999 SCT020 BKN030 620702 QNH3015INS TX17/2422Z
TN07/2513Z
       
KBMG 242115Z 2421/2518 17005KT 6SM -SHRA BR OVC007 
     FM250100 14005KT P6SM VCSH OVC011 
     FM250800 04005KT 3SM -SHRA BR OVC004 
     FM251400 04010KT P6SM OVC008 
     FM251700 04011G19KT P6SM BKN020
       
KBMI 242117Z 2421/2518 13006KT P6SM VCSH OVC005 
     FM250200 06007KT P6SM VCSH OVC007 
     FM250700 03014KT P6SM OVC008 
     FM251200 03013G21KT P6SM BKN007 
     FM251600 03013KT P6SM SCT021
       
KBNA 241724Z 2418/2518 19011KT 6SM -SHRA BKN045 OVC070 
     FM242000 18008KT P6SM OVC050 
     FM250600 20010KT 4SM -SHRA OVC040 
     FM251100 22008KT 3SM -SHRA BKN015 OVC030 
     FM251500 26006KT 5SM -SHRA BR OVC015
       
KBNO 241720Z 2418/2518 23010KT P6SM BKN050 
     FM250200 VRB05KT P6SM BKN060 
     FM251000 32008KT P6SM OVC040
       
KBOI 241720Z 2418/2518 VRB05KT P6SM -RA OVC030 
     FM241930 VRB05KT P6SM OVC060 
     FM250400 13008KT P6SM SCT120 
     FM251500 14015KT P6SM BKN100
       
KBOS 242016Z 2420/2524 24011G19KT P6SM SCT150 OVC250 
     FM242300 24010KT P6SM BKN120 OVC250 
     FM250800 28006KT P6SM BKN120 
     FM251100 33009KT P6SM BKN030 
     FM251300 34010KT P6SM SCT250
       
KBPI 241726Z 2418/2518 VRB05KT P6SM VCSH SCT020 BKN045 
     TEMPO 2418/2420 5SM -SHRASN BKN030 
     FM242000 VRB05KT 4SM -SHRASN BKN017 
     FM250100 32009KT P6SM VCSH SCT018 OVC035 
     FM250700 35005KT P6SM SCT035 BKN060 
     FM251400 VRB05KT P6SM FEW050 SCT200
       
KBPK 241720Z 2418/2518 21010G18KT P6SM SCT020 
     TEMPO 2418/2422 BKN020 
     FM242300 24012KT P6SM VCTS SCT025 BKN050CB 
     TEMPO 2423/2503 4SM -TSRA BR OVC025CB 
     FM250300 30008KT 4SM -RA BR BKN030 OVC050 
     FM251000 31006KT P6SM BKN050
       
KBPT 241720Z 2418/2518 17014G20KT P6SM SCT025 BKN035 
     TEMPO 2418/2420 BKN025 
     FM250000 16011KT P6SM BKN030 
     FM250200 15007KT P6SM BKN015 
     FM250700 16006KT 4SM BR SCT003 OVC007 
     TEMPO 2510/2514 1SM BR OVC003 
     FM251500 22008KT P6SM BKN007
       
KBRD 241733Z 2418/2518 05011G16KT P6SM OVC016 
     FM242100 04010G15KT P6SM BKN020 
     FM250000 04006KT P6SM SCT020 BKN050 
     FM250300 VRB03KT P6SM SCT050 
     FM251700 33004KT P6SM SCT250
       
KBRL 241730Z 2418/2518 14008KT 6SM BR VCSH SCT009 OVC025 
     TEMPO 2418/2419 BKN009 
     FM242100 07005KT 5SM -SHRA BR SCT009 OVC015 
     FM250200 04014G20KT 5SM BR VCSH OVC010 
     FM251000 03013G18KT P6SM BKN025
       
KBRO 241720Z 2418/2518 16014G25KT P6SM BKN025 
     FM250000 15008KT P6SM BKN050 
     FM251000 16005KT 4SM BR OVC007 
     FM251500 15008KT P6SM BKN015
       
KBTL 241740Z 2418/2518 27006KT P6SM VCSH BKN090 
     FM242200 32005KT P6SM VCSH BKN040 
     FM250200 01005KT P6SM OVC030 
     FM250500 04010KT P6SM BKN035 
     FM250800 05009KT P6SM SCT060
       
KBTM 241738Z 2418/2518 19007KT P6SM SCT120 BKN150 
     FM250100 28007KT P6SM VCSH BKN050 BKN100 
     FM250400 VRB04KT P6SM -SHRASN OVC035 
     FM250900 VRB03KT P6SM VCSH BKN050
       
KBTR 241720Z 2418/2518 18008KT P6SM SCT030 BKN090 
     FM242300 VRB06KT P6SM BKN090 
     TEMPO 2508/2512 1SM BR OVC008 
     FM251300 26005KT P6SM BKN060
       
KBTV 241720Z 2418/2518 19010KT P6SM SCT150 
     FM242200 33009KT P6SM OVC025 
     FM250100 34005KT P6SM VCSH BKN025 
     FM250400 34005KT P6SM OVC070 
     FM250800 33007KT P6SM SKC
       
KBUF 242102Z 2421/2518 24015KT P6SM FEW080 BKN120 
     FM250000 25012KT P6SM SCT080 OVC100 
     FM250200 31006KT P6SM BKN050 
     FM250800 01009KT P6SM BKN040 
     FM251100 02005KT P6SM FEW250
       
KBUR 241721Z 2418/2518 VRB03KT P6SM SKC 
     FM242000 17008KT P6SM SKC 
     FM250300 VRB03KT P6SM SKC
       
KBVI 241720Z 2418/2518 22008KT P6SM SCT120 BKN200 
     FM250700 30003KT P6SM OVC050 
     FM250900 33004KT P6SM OVC025
       
KBVO 241720Z 2418/2518 31005KT P6SM SCT025 
     FM251000 33006KT P6SM BKN015
       
KBWG 241728Z 2418/2518 25007KT P6SM -RA BKN070 OVC100 
     FM242000 20005KT P6SM OVC060 
     FM250500 20006KT 4SM -SHRA BR OVC040 
     FM251200 23005KT 5SM -RA BR OVC012
       
KBWI 242053Z 2421/2524 22009KT P6SM FEW140 SCT250 
     FM250000 18004KT P6SM SCT150 BKN250 
     FM250800 30004KT P6SM OVC060 
     FM251400 01004KT P6SM BKN050 
     FM251800 03006KT P6SM -RA OVC050 
     FM252100 03007KT 6SM -RA OVC030
       
KBYI 242017Z 2420/2518 28012G22KT P6SM VCSH BKN018 BKN030 OVC070 
     FM242300 26012G22KT P6SM VCSH SCT025 BKN050 OVC100 
     FM250400 23007KT P6SM SCT040
       
KBZN 241743Z 2418/2524 VRB04KT P6SM BKN090 
     FM250100 VRB03KT P6SM VCSH SCT030 BKN060 
     PROB30 2503/2509 4SM -RASN BKN010 OVC030 
     FM251000 VRB03KT 4SM BR BKN015 OVC035 
     FM251800 18005KT P6SM SCT120